Troy, NH (03465)

1:26 PM EST on February 10, 2016 (GMT -0500)
Fitzwilliam Village | | Change Station
CLOSE
Current Station
Personal Weather Station
Location: Fitzwilliam, NH
Elevation: 1220 ft
Nearby Weather Stations

Elev 1220 ft 42.78 °N, 72.15 °W | Updated 13 minutes ago

Snow
Snow
36.5 °F
Feels Like 34 °F
N
3.2
Wind Variable Wind from WSW

Today
High -- | Low -- °F
--% Chance of Precip.
Yesterday
High -- | Low -- °F
Precip. -- in
Pressure 29.52 in
Visibility 10.0 miles
Clouds Overcast 5500 ft
Windchill 34 °F
Dew Point 27 °F
Humidity 68%
Rainfall 0.00 in
Snow Depth Not available.
6:53 AM 5:13 PM
Waxing Crescent, 6% visible
METAR KEEN 101815Z AUTO 00000KT 10SM OVC055 00/M05 A2952 RMK AO1
Pressure 29.52 in
Visibility 10.0 miles
Clouds Overcast 5500 ft
Windchill 34 °F
Dew Point 27 °F
Humidity 68%
Rainfall 0.00 in
Snow Depth Not available.
6:53 AM 5:13 PM
Waxing Crescent, 6% visible
METAR KEEN 101815Z AUTO 00000KT 10SM OVC055 00/M05 A2952 RMK AO1

10-Day Weather Forecast

Almanac

Astronomy

Feb. 10, 2016 Rise Set
Actual Time
Civil Twilight
Nautical Twilight
Astronomical Twilight
Moon
Length of Visible Light
Length of Day
Tomorrow will be .
, % of the Moon is Illuminated

Today's Extremes

State Highs State Lows

Community

WunderPhotos

Upload Photos

1,891,907 photos uploaded!

WunderBlog® & News

Nearby

Air Quality

  Air Quality AQ Index Pollutant
Not available.

Snow Depth

Station Depth Elevation

Earthquake Activity

City Distance Mag. Time & Date
Minimum magnitude displayed is 2.5.

Coastal Water Temperatures

Place Temperature

Stations

Nearby Weather Stations

Station Location Temp. Windchill Dew Point Humidity Wind Precip. Elev Updated Type
                   

Watches & Warnings

There are currently no watches in effect.